CheckWX is a tool to help pilots better visualize weather data.  It is not intended as a substitute for an official pre-flight weather briefing.

07:06:30 UTC

KBRL TAF
Southeast Iowa Regional Airport
Burlington, Iowa, USA
KBRL 150520Z 1506/1606 25005KT P6SM SKC

Nov-15@
06:00 UTC

Nov-15 @ 06:00 UTC

Nov-16@
06:00 UTC

Nov-16 @ 06:00 UTC

KBRL 150520Z 1506/1606 25005KT P6SM SKC
Wind
  • 250° at 5 KTS
Cloud Levels
  • Clear skies